Time;durP1;ratioP1;P1;durP2;ratioP2;P2;SDS_P1;SDS_P2;PMS_P1;PMS_P2;Temp;Humidity;BMP_temperature;BMP_pressure;BME280_temperature;BME280_humidity;BME280_pressure;Samples;Min_cycle;Max_cycle;Signal;HPM_P1;HPM_P2
2023/10/06 00:00:48;;;;;;;6.90;2.70;;;;;;;17.80;100.00;102090.09;2056456;28;20208;-59
2023/10/06 00:01:49;;;;;;;3.43;2.23;;;;;;;17.88;100.00;102103.47;2055871;28;20446;-59
2023/10/06 00:02:51;;;;;;;4.87;2.83;;;;;;;17.88;100.00;102109.06;2055543;28;20989;-59
2023/10/06 00:03:57;;;;;;;4.50;2.73;;;;;;;17.90;100.00;102109.41;2055724;28;20537;-59
2023/10/06 00:04:58;;;;;;;3.77;2.40;;;;;;;17.85;100.00;102095.16;2055869;28;21015;-58
2023/10/06 00:05:58;;;;;;;6.53;3.00;;;;;;;17.81;100.00;102092.44;2062933;28;20914;-59
2023/10/06 00:07:06;;;;;;;7.87;3.37;;;;;;;17.92;100.00;102102.09;2062779;28;20288;-59
2023/10/06 00:08:40;;;;;;;5.40;3.07;;;;;;;17.93;100.00;102112.09;2055001;28;20242;-59
2023/10/06 00:09:34;;;;;;;7.87;3.23;;;;;;;17.94;100.00;102105.25;2056339;28;20492;-59
2023/10/06 00:10:35;;;;;;;5.47;3.13;;;;;;;17.74;100.00;102078.66;2055831;28;20551;-59
2023/10/06 00:11:40;;;;;;;6.63;3.13;;;;;;;17.99;100.00;102106.72;2055643;28;20461;-59
2023/10/06 00:12:47;;;;;;;4.50;2.83;;;;;;;17.98;100.00;102109.97;2055957;28;20702;-59
2023/10/06 00:14:00;;;;;;;5.00;3.23;;;;;;;17.96;100.00;102104.03;2055671;28;20789;-59
2023/10/06 00:15:07;;;;;;;5.73;2.93;;;;;;;17.92;100.00;102092.13;2055506;28;20418;-59
2023/10/06 00:16:08;;;;;;;5.27;3.00;;;;;;;18.04;100.00;102098.53;2055740;28;20799;-60
2023/10/06 00:17:15;;;;;;;4.77;3.27;;;;;;;18.06;100.00;102100.13;2054988;28;20514;-59
2023/10/06 00:18:19;;;;;;;5.37;3.03;;;;;;;18.08;100.00;102095.63;2054965;28;20512;-58
2023/10/06 00:19:32;;;;;;;4.07;2.63;;;;;;;18.08;100.00;102090.78;2055811;28;20436;-58
2023/10/06 00:20:49;;;;;;;7.27;3.30;;;;;;;18.08;100.00;102092.81;2055856;28;20410;-59
2023/10/06 00:22:01;;;;;;;6.67;3.23;;;;;;;17.67;100.00;102034.00;2055685;28;20802;-59
2023/10/06 00:23:06;;;;;;;3.90;2.53;;;;;;;18.09;100.00;102097.19;2055850;28;20762;-59
2023/10/06 00:24:10;;;;;;;4.80;3.10;;;;;;;18.11;100.00;102096.75;2055143;28;20511;-58
2023/10/06 00:25:11;;;;;;;6.43;3.10;;;;;;;18.07;100.00;102093.25;2055173;28;20434;-59
2023/10/06 00:26:16;;;;;;;6.37;2.73;;;;;;;18.03;100.00;102084.97;2056509;28;20431;-58
2023/10/06 00:27:24;;;;;;;4.67;2.97;;;;;;;18.07;100.00;102088.41;2055896;28;20797;-59
2023/10/06 00:28:26;;;;;;;5.17;3.10;;;;;;;18.09;100.00;102092.34;2055831;28;20866;-59
2023/10/06 00:29:29;;;;;;;5.93;3.33;;;;;;;18.11;100.00;102094.72;2055749;28;20820;-59
2023/10/06 00:30:31;;;;;;;6.63;3.90;;;;;;;18.08;100.00;102090.78;2055387;28;20541;-59
2023/10/06 00:31:34;;;;;;;8.03;3.63;;;;;;;18.08;100.00;102090.78;2053683;28;20445;-59
2023/10/06 00:32:36;;;;;;;5.40;3.20;;;;;;;18.09;100.00;102083.16;2055464;28;20470;-59
2023/10/06 00:33:37;;;;;;;5.33;3.23;;;;;;;18.09;100.00;102097.19;2052042;28;20450;-59
2023/10/06 00:34:39;;;;;;;5.60;3.40;;;;;;;18.09;100.00;102085.97;2047158;28;20427;-59
2023/10/06 00:35:39;;;;;;;7.40;3.30;;;;;;;18.02;100.00;102077.00;2046693;28;20569;-60
2023/10/06 00:36:41;;;;;;;7.77;3.50;;;;;;;18.12;100.00;102087.09;2047180;28;20419;-59
2023/10/06 00:37:42;;;;;;;4.57;3.13;;;;;;;18.09;100.00;102083.94;2047476;29;20682;-60
2023/10/06 00:38:50;;;;;;;7.30;3.30;;;;;;;18.15;100.00;102081.38;2047831;29;20493;-59
2023/10/06 00:39:57;;;;;;;5.20;3.40;;;;;;;18.13;100.00;102090.22;2048105;28;20302;-59
2023/10/06 00:40:58;;;;;;;5.10;3.20;;;;;;;18.14;100.00;102093.81;2047784;28;20485;-59
2023/10/06 00:42:04;;;;;;;5.90;3.50;;;;;;;18.13;100.00;102081.81;2047782;28;20951;-59
2023/10/06 00:43:08;;;;;;;6.77;3.40;;;;;;;18.12;100.00;102087.09;2047439;29;20449;-59
2023/10/06 00:44:11;;;;;;;7.10;3.30;;;;;;;17.88;100.00;102050.94;2047745;28;20439;-61
2023/10/06 00:45:12;;;;;;;3.67;2.67;;;;;;;18.13;100.00;102083.84;2047617;28;20466;-59
2023/10/06 00:46:18;;;;;;;6.77;3.80;;;;;;;18.08;100.00;102087.22;2047846;28;20450;-59
2023/10/06 00:47:20;;;;;;;7.30;3.10;;;;;;;18.08;100.00;102093.59;2047234;28;20170;-58
2023/10/06 00:48:21;;;;;;;5.43;3.30;;;;;;;18.10;100.00;102095.94;2046805;29;20518;-60
2023/10/06 00:49:23;;;;;;;5.73;3.40;;;;;;;18.03;100.00;102076.56;2047486;28;20427;-59
2023/10/06 00:50:24;;;;;;;5.03;3.10;;;;;;;18.13;100.00;102091.47;2048434;29;20207;-59
2023/10/06 00:51:26;;;;;;;7.90;3.33;;;;;;;18.14;100.00;102093.81;2047779;28;20470;-59
2023/10/06 00:52:26;;;;;;;6.17;3.27;;;;;;;18.16;100.00;102087.78;2047796;28;20908;-59
2023/10/06 00:53:31;;;;;;;5.37;3.30;;;;;;;18.13;100.00;102084.59;2047534;28;20452;-58
2023/10/06 00:54:33;;;;;;;6.70;3.17;;;;;;;18.17;100.00;102088.09;2047551;28;20227;-59
2023/10/06 00:55:34;;;;;;;5.27;2.90;;;;;;;18.18;100.00;102094.50;2047342;29;20461;-59
2023/10/06 00:56:34;;;;;;;5.90;3.13;;;;;;;18.16;100.00;102085.72;2047534;28;20492;-60
2023/10/06 00:57:35;;;;;;;6.07;3.33;;;;;;;18.13;100.00;102081.03;2046591;28;20439;-60
2023/10/06 00:58:41;;;;;;;5.50;3.27;;;;;;;18.16;100.00;102087.78;2039307;29;20215;-59
2023/10/06 00:59:41;;;;;;;4.10;2.97;;;;;;;18.17;100.00;102078.13;2031681;28;20579;-59
2023/10/06 01:00:41;;;;;;;6.10;3.50;;;;;;;18.16;100.00;102085.72;2048361;29;20473;-60
2023/10/06 01:01:42;;;;;;;6.47;3.30;;;;;;;18.17;100.00;102084.50;2047546;28;20214;-59
2023/10/06 01:02:44;;;;;;;5.53;3.03;;;;;;;18.15;100.00;102084.16;2047862;28;20328;-59
2023/10/06 01:04:00;;;;;;;8.63;3.20;;;;;;;17.77;100.00;102019.66;2047462;28;20501;-59
2023/10/06 01:05:01;;;;;;;6.40;3.10;;;;;;;18.18;100.00;102086.09;2047877;28;20450;-58
2023/10/06 01:06:23;;;;;;;5.90;3.23;;;;;;;18.18;100.00;102077.66;2047819;29;20513;-59
2023/10/06 01:07:24;;;;;;;9.17;2.83;;;;;;;18.20;100.00;102080.81;2046877;28;20972;-59
2023/10/06 01:08:28;;;;;;;7.50;3.53;;;;;;;18.09;100.00;102067.09;2047082;28;20821;-59
2023/10/06 01:09:33;;;;;;;4.53;2.67;;;;;;;18.19;100.00;102080.00;2047427;28;20853;-58
2023/10/06 01:10:34;;;;;;;5.43;3.13;;;;;;;18.21;100.00;102082.38;2047588;28;20528;-59
2023/10/06 01:11:41;;;;;;;5.60;3.10;;;;;;;18.20;100.00;102080.81;2047481;29;20455;-59
2023/10/06 01:12:42;;;;;;;7.37;3.03;;;;;;;18.26;100.00;102079.00;2047759;29;20548;-59
2023/10/06 01:13:56;;;;;;;7.23;3.63;;;;;;;18.26;100.00;102083.84;2047556;29;20432;-59
2023/10/06 01:15:16;;;;;;;4.87;2.63;;;;;;;18.14;100.00;102062.97;2041916;29;20411;-59
2023/10/06 01:16:16;;;;;;;5.60;3.37;;;;;;;18.24;100.00;102081.47;2047788;29;20458;-59
2023/10/06 01:17:16;;;;;;;5.23;3.20;;;;;;;18.24;100.00;102073.06;2046962;29;20447;-58
2023/10/06 01:18:25;;;;;;;5.03;3.20;;;;;;;18.24;100.00;102073.06;2046894;28;20190;-59
2023/10/06 01:19:26;;;;;;;7.53;3.47;;;;;;;18.27;100.00;102076.97;2053485;28;20450;-58
2023/10/06 01:20:44;;;;;;;10.27;3.43;;;;;;;18.27;100.00;102071.38;2047392;28;20509;-59
2023/10/06 01:21:52;;;;;;;5.03;2.90;;;;;;;18.26;100.00;102072.63;2047475;28;20174;-59
2023/10/06 01:22:56;;;;;;;6.33;3.20;;;;;;;18.27;100.00;102074.94;2047533;29;20919;-59
2023/10/06 01:24:11;;;;;;;5.73;2.70;;;;;;;18.24;100.00;102071.03;2047455;28;20435;-59
2023/10/06 01:25:21;;;;;;;4.77;2.53;;;;;;;18.27;100.00;102069.34;2047669;28;20470;-59
2023/10/06 01:26:24;;;;;;;7.13;3.13;;;;;;;18.27;100.00;102075.75;2047583;28;20410;-59
2023/10/06 01:27:27;;;;;;;6.17;2.73;;;;;;;18.20;100.00;102055.53;2047079;28;20411;-59
2023/10/06 01:28:28;;;;;;;4.93;2.87;;;;;;;18.29;100.00;102066.88;2047060;28;20433;-59
2023/10/06 01:29:29;;;;;;;4.03;2.60;;;;;;;18.27;100.00;102067.31;2041364;29;20426;-59
2023/10/06 01:30:29;;;;;;;5.07;2.80;;;;;;;18.32;100.00;102073.63;2048381;28;20253;-59
2023/10/06 01:31:30;;;;;;;6.17;3.27;;;;;;;18.32;100.00;102068.78;2048899;28;20533;-59
2023/10/06 01:32:30;;;;;;;5.83;2.97;;;;;;;18.33;100.00;102078.81;2051745;28;20235;-58
2023/10/06 01:33:31;;;;;;;5.83;3.20;;;;;;;18.34;100.00;102071.16;2064001;28;20205;-59
2023/10/06 01:34:38;;;;;;;5.47;3.40;;;;;;;18.19;100.00;102049.13;2064362;28;20574;-58
2023/10/06 01:35:42;;;;;;;7.53;2.90;;;;;;;18.35;100.00;102076.31;2056502;28;20555;-59
2023/10/06 01:36:42;;;;;;;7.20;3.13;;;;;;;18.35;100.00;102072.72;2058106;28;20503;-59
2023/10/06 01:37:44;;;;;;;6.13;3.13;;;;;;;18.34;100.00;102071.97;2063846;28;20435;-58
2023/10/06 01:38:45;;;;;;;5.27;3.20;;;;;;;18.31;100.00;102058.78;2057650;28;20587;-59
2023/10/06 01:39:48;;;;;;;4.53;2.60;;;;;;;18.34;100.00;102071.16;2056789;28;20522;-58
2023/10/06 01:40:53;;;;;;;5.37;3.00;;;;;;;18.34;100.00;102063.53;2056905;28;20219;-58
2023/10/06 01:41:53;;;;;;;4.60;2.87;;;;;;;18.33;100.00;102076.00;2056928;28;20441;-59
2023/10/06 01:42:54;;;;;;;5.03;2.87;;;;;;;18.33;100.00;102073.19;2056029;28;20442;-59
2023/10/06 01:43:55;;;;;;;5.07;3.03;;;;;;;18.33;100.00;102063.97;2056347;28;20670;-59
2023/10/06 01:45:03;;;;;;;6.57;3.07;;;;;;;18.33;100.00;102069.59;2056796;28;20210;-59
2023/10/06 01:46:07;;;;;;;4.70;2.80;;;;;;;18.19;100.00;102051.94;2056701;28;20167;-59
2023/10/06 01:47:07;;;;;;;4.77;3.03;;;;;;;18.32;100.00;102080.03;2056368;28;20422;-58
2023/10/06 01:49:15;;;;;;;5.77;2.97;;;;;;;18.33;100.00;102075.22;2056168;28;20195;-59
2023/10/06 01:50:17;;;;;;;4.90;2.90;;;;;;;18.33;100.00;102078.81;2057611;28;20430;-59
2023/10/06 01:51:17;;;;;;;6.73;2.90;;;;;;;18.32;100.00;102077.22;2056879;28;20269;-58
2023/10/06 01:52:19;;;;;;;6.30;3.37;;;;;;;18.32;100.00;102079.22;2056856;28;20453;-58
2023/10/06 01:53:20;;;;;;;4.27;2.87;;;;;;;18.32;100.00;102082.03;2056705;28;20191;-59
2023/10/06 01:54:27;;;;;;;5.17;2.80;;;;;;;18.30;100.00;102079.66;2056429;28;20442;-59
2023/10/06 01:55:28;;;;;;;4.47;2.70;;;;;;;18.29;100.00;102075.31;2056954;28;20505;-59
2023/10/06 01:56:31;;;;;;;5.63;2.83;;;;;;;18.28;100.00;102082.16;2056710;28;20537;-59
2023/10/06 01:57:31;;;;;;;5.30;3.17;;;;;;;18.24;100.00;102082.25;2056648;28;20175;-58
2023/10/06 01:58:31;;;;;;;5.37;3.10;;;;;;;18.23;100.00;102082.72;2063016;28;20421;-58
2023/10/06 01:59:33;;;;;;;7.10;3.27;;;;;;;18.23;100.00;102079.13;2057400;28;20206;-58
2023/10/06 02:00:34;;;;;;;6.03;2.90;;;;;;;18.22;100.00;102077.56;2056658;28;20206;-58
2023/10/06 02:01:35;;;;;;;8.30;2.97;;;;;;;18.19;100.00;102077.19;2056532;28;20454;-59
2023/10/06 02:02:35;;;;;;;5.03;2.63;;;;;;;18.19;100.00;102079.22;2056670;28;20534;-59
2023/10/06 02:03:38;;;;;;;4.47;2.97;;;;;;;18.17;100.00;102082.47;2056796;28;20672;-58
2023/10/06 02:04:44;;;;;;;5.57;3.30;;;;;;;18.17;100.00;102086.53;2056699;28;20202;-59
2023/10/06 02:05:45;;;;;;;5.20;2.63;;;;;;;18.13;100.00;102081.81;2051746;28;20449;-59
2023/10/06 02:06:48;;;;;;;4.90;2.83;;;;;;;18.11;100.00;102077.09;2046677;28;20525;-59
2023/10/06 02:07:48;;;;;;;4.80;2.53;;;;;;;18.08;100.00;102086.41;2055416;28;20191;-59
2023/10/06 02:08:54;;;;;;;4.17;2.70;;;;;;;18.06;100.00;102086.09;2056793;28;20414;-59
2023/10/06 02:09:55;;;;;;;6.50;3.00;;;;;;;18.02;100.00;102084.16;2057546;28;20189;-59
2023/10/06 02:10:55;;;;;;;5.30;3.17;;;;;;;17.97;100.00;102078.31;2056750;28;20430;-59
2023/10/06 02:11:56;;;;;;;6.90;2.77;;;;;;;17.97;100.00;102074.75;2056765;28;20198;-59
2023/10/06 02:12:57;;;;;;;9.53;3.47;;;;;;;17.96;100.00;102087.97;2056748;28;20195;-59
2023/10/06 02:13:58;;;;;;;7.13;3.07;;;;;;;17.94;100.00;102084.84;2056756;28;20229;-59
2023/10/06 02:14:58;;;;;;;5.07;2.90;;;;;;;17.34;100.00;101996.13;2056535;28;20450;-59
2023/10/06 02:15:59;;;;;;;7.03;2.97;;;;;;;17.91;100.00;102093.38;2056605;28;20183;-59
2023/10/06 02:17:05;;;;;;;5.53;2.83;;;;;;;17.66;100.00;102060.47;2055883;28;20669;-59
2023/10/06 02:18:12;;;;;;;3.67;2.40;;;;;;;17.85;100.00;102087.53;2056100;28;20406;-59
2023/10/06 02:19:16;;;;;;;3.63;2.20;;;;;;;17.82;100.00;102090.44;2056382;28;20411;-59
2023/10/06 02:20:30;;;;;;;4.00;2.17;;;;;;;17.81;100.00;102094.47;2057413;28;20437;-58
2023/10/06 02:21:30;;;;;;;4.07;2.47;;;;;;;17.78;100.00;102098.97;2056253;28;20410;-59
2023/10/06 02:22:31;;;;;;;9.27;2.30;;;;;;;17.40;100.00;102039.22;2057303;28;20437;-59
2023/10/06 02:23:37;;;;;;;3.73;2.37;;;;;;;17.73;100.00;102096.72;2056471;28;20237;-59
2023/10/06 02:24:38;;;;;;;3.83;2.20;;;;;;;17.76;100.00;102086.63;2056683;28;20199;-59
2023/10/06 02:25:39;;;;;;;6.00;2.70;;;;;;;17.73;100.00;102085.50;2056755;28;20924;-59
2023/10/06 02:26:39;;;;;;;8.13;2.37;;;;;;;17.66;100.00;102090.53;2056324;28;20245;-59
2023/10/06 02:27:47;;;;;;;4.53;2.20;;;;;;;17.66;100.00;102088.50;2055724;28;20541;-59
2023/10/06 02:28:50;;;;;;;4.27;2.53;;;;;;;17.68;100.00;102089.63;2056601;28;20191;-59
2023/10/06 02:29:51;;;;;;;4.13;2.60;;;;;;;17.66;100.00;102091.28;2056440;28;20438;-58
2023/10/06 02:30:54;;;;;;;6.47;2.47;;;;;;;17.65;100.00;102086.94;2056540;28;20418;-60
2023/10/06 02:32:05;;;;;;;4.03;2.63;;;;;;;17.63;100.00;102092.97;2056713;28;20186;-59
2023/10/06 02:33:06;;;;;;;5.20;2.30;;;;;;;17.23;100.00;102030.09;2062842;28;20539;-59
2023/10/06 02:34:12;;;;;;;3.40;2.27;;;;;;;17.52;100.00;102081.28;2057101;28;20484;-58
2023/10/06 02:35:13;;;;;;;4.63;2.63;;;;;;;17.59;100.00;102094.31;2049081;29;20550;-59
2023/10/06 02:36:22;;;;;;;7.57;2.77;;;;;;;17.55;100.00;102092.88;2056083;28;20448;-59
2023/10/06 02:37:25;;;;;;;4.97;2.50;;;;;;;17.61;100.00;102088.28;2056144;28;20670;-59
2023/10/06 02:38:37;;;;;;;5.00;2.60;;;;;;;17.58;100.00;102086.34;2055933;28;20463;-59
2023/10/06 02:39:43;;;;;;;4.10;2.20;;;;;;;17.09;100.00;102015.69;2056202;28;20439;-59
2023/10/06 02:40:47;;;;;;;3.03;1.97;;;;;;;17.52;100.00;102083.31;2055633;28;20988;-60
2023/10/06 02:41:49;;;;;;;5.23;2.00;;;;;;;17.52;100.00;102089.69;2056328;28;20466;-59
2023/10/06 02:42:52;;;;;;;5.30;2.57;;;;;;;17.50;100.00;102088.56;2056519;28;20453;-60
2023/10/06 02:43:54;;;;;;;4.20;2.57;;;;;;;17.50;100.00;102090.59;2056573;28;20496;-60
2023/10/06 02:44:55;;;;;;;4.80;2.20;;;;;;;17.51;100.00;102092.19;2056186;28;20469;-58
2023/10/06 02:46:03;;;;;;;3.77;2.50;;;;;;;17.50;100.00;102088.56;2056476;28;20509;-60
2023/10/06 02:47:11;;;;;;;3.90;2.27;;;;;;;17.19;100.00;102037.00;2055758;28;20203;-58
2023/10/06 02:48:22;;;;;;;3.97;2.17;;;;;;;17.45;100.00;102088.34;2055641;28;20427;-59
2023/10/06 02:49:40;;;;;;;2.87;2.03;;;;;;;17.37;100.00;102080.09;2056213;28;20411;-58
2023/10/06 02:50:45;;;;;;;3.43;2.30;;;;;;;17.10;100.00;102037.66;2056418;28;20772;-59
2023/10/06 02:51:48;;;;;;;4.40;2.43;;;;;;;17.40;100.00;102086.88;2056230;28;20571;-59
2023/10/06 02:52:53;;;;;;;5.83;2.57;;;;;;;17.35;100.00;102092.97;2056268;28;20428;-58
2023/10/06 02:54:01;;;;;;;3.63;2.43;;;;;;;17.01;100.00;102029.09;2056219;28;20421;-59
2023/10/06 02:56:09;;;;;;;4.77;2.80;;;;;;;17.42;100.00;102090.03;2056464;28;20515;-59
2023/10/06 02:57:10;;;;;;;4.00;2.10;;;;;;;17.38;100.00;102089.31;2056336;28;20425;-58
2023/10/06 02:58:26;;;;;;;3.77;2.20;;;;;;;17.33;100.00;102096.25;2056263;28;20456;-58
2023/10/06 02:59:34;;;;;;;4.63;2.60;;;;;;;17.30;100.00;102093.53;2056862;28;20406;-59
2023/10/06 03:00:36;;;;;;;3.27;2.20;;;;;;;17.36;100.00;102086.94;2049088;29;20459;-59
2023/10/06 03:01:38;;;;;;;4.80;2.13;;;;;;;17.33;100.00;102087.03;2055839;28;20472;-59
2023/10/06 03:02:40;;;;;;;3.77;2.20;;;;;;;17.31;100.00;102089.53;2056228;28;20472;-59
2023/10/06 03:03:40;;;;;;;4.77;2.40;;;;;;;17.31;100.00;102093.09;2056078;28;20449;-58
2023/10/06 03:04:49;;;;;;;4.70;2.60;;;;;;;17.15;100.00;102065.13;2056259;28;20452;-58
2023/10/06 03:05:49;;;;;;;3.47;2.20;;;;;;;17.29;100.00;102087.16;2055543;28;20489;-58
2023/10/06 03:06:53;;;;;;;4.10;2.47;;;;;;;17.26;100.00;102090.81;2055017;28;20918;-59
2023/10/06 03:07:54;;;;;;;4.13;2.30;;;;;;;17.26;100.00;102088.03;2055672;28;20315;-58
2023/10/06 03:08:54;;;;;;;4.43;2.00;;;;;;;17.24;100.00;102079.28;2056155;28;20438;-59
2023/10/06 03:09:55;;;;;;;3.43;2.17;;;;;;;17.28;100.00;102090.41;2055812;28;20181;-59
2023/10/06 03:10:55;;;;;;;5.97;2.43;;;;;;;17.23;100.00;102077.72;2048840;29;20716;-59
2023/10/06 03:11:59;;;;;;;7.07;2.20;;;;;;;17.28;100.00;102091.19;2055835;28;20238;-60
2023/10/06 03:13:03;;;;;;;4.13;2.23;;;;;;;17.29;100.00;102087.16;2056170;28;20253;-58
2023/10/06 03:14:07;;;;;;;5.33;2.60;;;;;;;17.25;100.00;102085.66;2056074;28;20453;-58
2023/10/06 03:15:27;;;;;;;5.00;2.53;;;;;;;17.22;100.00;102094.97;2056291;28;20942;-58
2023/10/06 03:16:28;;;;;;;4.63;2.43;;;;;;;17.26;100.00;102084.47;2056330;28;20466;-58
2023/10/06 03:17:30;;;;;;;3.87;2.57;;;;;;;17.20;100.00;102081.41;2055677;28;20480;-58
2023/10/06 03:18:31;;;;;;;5.10;2.27;;;;;;;17.14;100.00;102074.78;2055765;28;20639;-59
2023/10/06 03:19:33;;;;;;;10.00;2.70;;;;;;;17.19;100.00;102076.22;2056012;28;20937;-58
2023/10/06 03:20:41;;;;;;;5.60;2.27;;;;;;;17.17;100.00;102084.31;2056087;28;20431;-58
2023/10/06 03:21:45;;;;;;;3.20;2.17;;;;;;;17.13;100.00;102089.22;2055889;28;20406;-59
2023/10/06 03:22:48;;;;;;;4.20;2.73;;;;;;;17.10;100.00;102090.88;2056160;28;20488;-59
2023/10/06 03:24:04;;;;;;;6.47;2.73;;;;;;;17.10;100.00;102088.09;2055921;28;20415;-58
2023/10/06 03:25:15;;;;;;;4.97;2.53;;;;;;;17.07;100.00;102091.75;2056285;28;20413;-59
2023/10/06 03:26:29;;;;;;;4.30;2.57;;;;;;;17.08;100.00;102084.16;2056171;28;20416;-59
2023/10/06 03:27:31;;;;;;;4.30;2.50;;;;;;;16.58;100.00;102019.50;2052114;28;20456;-59
2023/10/06 03:28:38;;;;;;;3.90;2.47;;;;;;;17.05;100.00;102097.03;2049062;28;20458;-58
2023/10/06 03:30:49;;;;;;;3.57;2.30;;;;;;;17.10;100.00;102093.69;2056205;28;20920;-58
2023/10/06 03:31:50;;;;;;;5.50;2.87;;;;;;;17.09;100.00;102092.13;2055957;28;20496;-58
2023/10/06 03:32:51;;;;;;;5.57;2.53;;;;;;;16.84;100.00;102052.00;2056569;28;20535;-58
2023/10/06 03:33:55;;;;;;;6.10;2.87;;;;;;;16.99;100.00;102079.19;2055953;28;20201;-59
2023/10/06 03:34:59;;;;;;;4.80;2.50;;;;;;;17.10;100.00;102092.88;2055985;28;20446;-58
2023/10/06 03:35:59;;;;;;;4.73;2.43;;;;;;;17.10;100.00;102096.47;2056146;28;20438;-58
2023/10/06 03:37:00;;;;;;;5.17;2.70;;;;;;;17.10;100.00;102090.88;2055445;28;20999;-58
2023/10/06 03:39:23;;;;;;;4.00;2.07;;;;;;;17.12;100.00;102098.84;2055998;28;20657;-58
2023/10/06 03:40:53;;;;;;;4.70;2.20;;;;;;;17.00;100.00;102080.00;2055917;28;20489;-58
2023/10/06 03:41:46;;;;;;;3.70;2.10;;;;;;;17.08;100.00;102098.94;2055545;28;20822;-58
2023/10/06 03:42:47;;;;;;;4.60;2.27;;;;;;;17.07;100.00;102091.75;2056171;28;20454;-58
2023/10/06 03:45:04;;;;;;;3.73;2.10;;;;;;;17.06;100.00;102101.38;2055881;28;20478;-58
2023/10/06 03:46:07;;;;;;;3.53;2.07;;;;;;;17.07;100.00;102105.00;2056287;28;20655;-58
2023/10/06 03:47:08;;;;;;;5.30;2.60;;;;;;;17.04;100.00;102105.88;2055394;28;20446;-59
2023/10/06 03:48:12;;;;;;;4.57;1.90;;;;;;;17.00;100.00;102108.00;2055170;28;20432;-58
2023/10/06 03:49:13;;;;;;;4.17;2.20;;;;;;;16.98;100.00;102107.63;2055841;28;20432;-58
2023/10/06 03:50:19;;;;;;;4.27;2.20;;;;;;;16.99;100.00;102110.00;2056192;28;20492;-58
2023/10/06 03:51:20;;;;;;;3.93;2.40;;;;;;;16.99;100.00;102106.41;2056715;28;20557;-58
2023/10/06 03:52:21;;;;;;;3.73;2.10;;;;;;;16.99;100.00;102112.00;2055235;28;20545;-59
2023/10/06 03:53:25;;;;;;;5.37;2.10;;;;;;;16.74;100.00;102070.66;2056811;28;20446;-58
2023/10/06 03:54:25;;;;;;;6.63;2.57;;;;;;;16.96;100.00;102101.69;2054773;28;20221;-59
2023/10/06 03:55:26;;;;;;;3.10;2.40;;;;;;;16.89;100.00;102094.25;2055012;28;20463;-60
2023/10/06 03:56:26;;;;;;;4.67;2.10;;;;;;;17.00;100.00;102103.16;2055247;28;20186;-59
2023/10/06 03:57:27;;;;;;;3.03;2.10;;;;;;;17.03;100.00;102112.69;2056869;28;25132;-59
2023/10/06 03:58:28;;;;;;;3.67;2.33;;;;;;;17.38;100.00;102117.31;2062665;28;20180;-59
2023/10/06 03:59:28;;;;;;;3.27;2.10;;;;;;;17.93;100.00;102119.75;2055198;28;20175;-59
2023/10/06 04:00:29;;;;;;;2.43;1.90;;;;;;;18.33;100.00;102128.53;2055710;28;20433;-59
2023/10/06 04:01:32;;;;;;;4.30;2.50;;;;;;;18.51;100.00;102132.34;2057554;28;20654;-58
2023/10/06 04:02:38;;;;;;;4.80;3.00;;;;;;;18.74;100.00;102129.16;2058397;28;20528;-58
2023/10/06 04:03:39;;;;;;;5.00;2.60;;;;;;;19.07;100.00;102110.75;2057082;28;20273;-60
2023/10/06 04:04:40;;;;;;;4.97;2.63;;;;;;;19.01;100.00;102090.09;2054847;28;20454;-60
2023/10/06 04:05:48;;;;;;;4.57;2.37;;;;;;;19.23;100.00;102124.66;2054829;28;20699;-60
2023/10/06 04:06:49;;;;;;;3.30;2.20;;;;;;;19.26;100.00;102131.38;2055009;28;20217;-60
2023/10/06 04:07:49;;;;;;;6.53;2.60;;;;;;;19.34;100.00;102127.09;2054784;28;21054;-60
2023/10/06 04:08:51;;;;;;;4.93;2.50;;;;;;;19.39;100.00;102127.28;2055168;28;20182;-60
2023/10/06 04:09:53;;;;;;;5.53;2.87;;;;;;;19.69;100.00;102123.75;2055664;28;20175;-58
2023/10/06 04:10:57;;;;;;;6.27;2.50;;;;;;;19.79;100.00;102121.75;2056002;28;20979;-59
2023/10/06 04:11:58;;;;;;;3.53;2.57;;;;;;;20.04;100.00;102122.38;2056502;28;20175;-59
2023/10/06 04:12:58;;;;;;;5.23;2.70;;;;;;;20.10;100.00;102119.75;2055628;28;20445;-60
2023/10/06 04:13:58;;;;;;;3.77;2.47;;;;;;;20.09;100.00;102121.00;2055371;28;20271;-60
2023/10/06 04:14:59;;;;;;;4.00;2.00;;;;;;;20.08;100.00;102102.56;2055544;28;20764;-58
2023/10/06 04:15:59;;;;;;;3.93;2.43;;;;;;;20.24;100.00;102122.00;2056476;28;20238;-60
2023/10/06 04:17:05;;;;;;;3.37;2.40;;;;;;;20.31;100.00;102118.94;2055932;28;20703;-60
2023/10/06 04:18:10;;;;;;;4.27;2.80;;;;;;;20.42;100.00;102117.22;2057369;28;20561;-60
2023/10/06 04:19:10;;;;;;;4.80;2.60;;;;;;;20.53;100.00;102126.03;2063001;28;20421;-60
2023/10/06 04:20:13;;;;;;;4.47;2.63;;;;;;;20.60;100.00;102113.69;2056650;28;20414;-60
2023/10/06 04:21:14;;;;;;;3.73;2.30;;;;;;;20.72;100.00;102112.78;2056348;28;20337;-61
2023/10/06 04:22:14;;;;;;;4.53;2.63;;;;;;;20.73;100.00;102111.53;2059149;28;20445;-60
2023/10/06 04:23:22;;;;;;;4.53;2.30;;;;;;;20.76;100.00;102110.59;2058054;28;20199;-60
2023/10/06 04:24:23;;;;;;;3.20;1.77;;;;;;;20.71;100.00;102106.38;2056614;28;20170;-60
2023/10/06 04:25:23;;;;;;;3.50;2.10;;;;;;;20.84;100.00;102109.84;2055725;28;20449;-60
2023/10/06 04:26:24;;;;;;;4.83;2.37;;;;;;;20.91;100.00;102114.41;2055437;28;20206;-60
2023/10/06 04:27:26;;;;;;;3.73;2.30;;;;;;;20.96;100.00;102106.13;2058271;28;20221;-60
2023/10/06 04:28:29;;;;;;;3.77;2.40;;;;;;;20.98;100.00;102114.88;2058684;28;20650;-61
2023/10/06 04:29:34;;;;;;;3.30;2.00;;;;;;;21.01;100.00;102110.34;2055981;28;20437;-59
2023/10/06 04:30:35;;;;;;;6.13;2.20;;;;;;;21.00;100.00;102112.38;2056484;28;20406;-57
2023/10/06 04:31:36;;;;;;;4.67;2.10;;;;;;;20.95;100.00;102096.09;2056689;28;20577;-59
2023/10/06 04:32:38;;;;;;;5.97;2.27;;;;;;;21.06;100.00;102115.34;2056080;28;20478;-57
2023/10/06 04:33:38;;;;;;;3.10;2.20;;;;;;;21.07;100.00;102114.88;2054479;28;20187;-58
2023/10/06 04:34:39;;;;;;;4.13;2.27;;;;;;;21.12;100.00;102121.94;2054574;28;20788;-58
2023/10/06 04:35:59;;;;;;;5.70;2.20;;;;;;;21.11;100.00;102107.06;2054972;28;20194;-57
2023/10/06 04:37:00;;;;;;;5.67;2.20;;;;;;;21.16;100.00;102112.06;2054178;28;20245;-59
2023/10/06 04:38:01;;;;;;;3.33;2.27;;;;;;;21.16;100.00;102106.44;2054110;28;20592;-60
2023/10/06 04:39:01;;;;;;;4.07;1.97;;;;;;;21.05;100.00;102108.94;2054693;28;20660;-60
2023/10/06 04:40:02;;;;;;;5.03;3.23;;;;;;;20.92;100.00;102107.50;2054706;28;20656;-59
2023/10/06 04:41:06;;;;;;;4.57;2.80;;;;;;;20.79;100.00;102109.66;2054717;28;20186;-60
2023/10/06 04:42:07;;;;;;;3.93;2.40;;;;;;;20.66;100.00;102106.19;2054888;28;20179;-60
2023/10/06 04:43:09;;;;;;;5.93;3.33;;;;;;;20.53;100.00;102108.38;2050033;28;20450;-60
2023/10/06 04:44:10;;;;;;;5.97;3.60;;;;;;;20.40;100.00;102113.31;2050613;28;20194;-59
2023/10/06 04:45:12;;;;;;;4.73;2.80;;;;;;;20.29;100.00;102110.16;2053097;28;20477;-59
2023/10/06 04:46:13;;;;;;;6.53;3.17;;;;;;;20.17;100.00;102108.25;2056869;28;20190;-61
2023/10/06 04:47:15;;;;;;;4.60;2.60;;;;;;;20.05;100.00;102117.53;2051816;28;20436;-60
2023/10/06 04:48:18;;;;;;;9.93;2.47;;;;;;;19.93;100.00;102107.16;2052340;28;20665;-60
2023/10/06 04:49:19;;;;;;;8.73;2.90;;;;;;;19.80;100.00;102112.09;2055019;28;20649;-60
2023/10/06 04:50:19;;;;;;;5.53;2.30;;;;;;;19.69;100.00;102117.31;2052144;28;20926;-60
2023/10/06 04:51:21;;;;;;;3.40;2.20;;;;;;;19.60;100.00;102112.41;2049873;28;20189;-59
2023/10/06 04:52:21;;;;;;;5.30;2.30;;;;;;;19.43;100.00;102099.03;2047242;28;20197;-60
2023/10/06 04:53:22;;;;;;;4.43;2.10;;;;;;;19.45;100.00;102121.84;2042035;28;21200;-60
2023/10/06 04:54:23;;;;;;;6.40;2.80;;;;;;;19.38;100.00;102122.91;2036352;28;20199;-60
2023/10/06 04:55:23;;;;;;;5.30;2.20;;;;;;;18.62;100.00;102008.44;2054295;28;20539;-60
2023/10/06 04:56:24;;;;;;;7.20;2.97;;;;;;;19.12;100.00;102103.75;2048289;28;20286;-60
2023/10/06 04:57:24;;;;;;;6.47;2.73;;;;;;;19.00;100.00;102098.97;2050236;28;20198;-59
2023/10/06 04:58:25;;;;;;;7.93;3.30;;;;;;;19.09;100.00;102115.91;2049079;28;20195;-60